createdAt,value
2022-11-16T00:00:53.689Z,994.01
2022-11-16T00:01:53.716Z,994.07
2022-11-16T00:02:53.695Z,994.03
2022-11-16T00:03:53.657Z,994.00
2022-11-16T00:04:53.643Z,994.00
2022-11-16T00:05:53.659Z,994.01
2022-11-16T00:06:53.687Z,994.01
2022-11-16T00:07:53.609Z,994.06
2022-11-16T00:08:53.605Z,994.02
2022-11-16T00:09:53.590Z,993.99
2022-11-16T00:10:53.570Z,994.04
2022-11-16T00:11:53.569Z,994.06
2022-11-16T00:12:53.556Z,994.03
2022-11-16T00:13:53.553Z,993.97
2022-11-16T00:14:53.529Z,993.98
2022-11-16T00:15:53.523Z,993.94
2022-11-16T00:16:53.505Z,993.94
2022-11-16T00:17:53.514Z,994.00
2022-11-16T00:18:53.521Z,993.92
2022-11-16T00:19:53.476Z,993.93
2022-11-16T00:20:53.462Z,993.88
2022-11-16T00:21:53.459Z,993.93
2022-11-16T00:22:53.444Z,993.87
2022-11-16T00:23:53.428Z,993.89
2022-11-16T00:24:53.444Z,993.90
2022-11-16T00:25:53.413Z,993.85
2022-11-16T00:26:53.393Z,993.85
2022-11-16T00:27:53.388Z,993.79
2022-11-16T00:28:53.371Z,993.82
2022-11-16T00:29:53.382Z,993.76
2022-11-16T00:30:53.350Z,993.79
2022-11-16T00:31:53.340Z,993.82
2022-11-16T00:32:53.340Z,993.82
2022-11-16T00:33:53.316Z,993.76
2022-11-16T00:34:53.339Z,993.78
2022-11-16T00:35:53.311Z,993.73
2022-11-16T00:36:53.283Z,993.77
2022-11-16T00:37:53.280Z,993.70
2022-11-16T00:38:53.259Z,993.66
2022-11-16T00:39:53.254Z,993.64
2022-11-16T00:40:53.262Z,993.60
2022-11-16T00:41:53.253Z,993.64
2022-11-16T00:42:53.213Z,993.60
2022-11-16T00:43:53.206Z,993.65
2022-11-16T00:44:53.193Z,993.64
2022-11-16T00:45:53.188Z,993.64
2022-11-16T00:46:53.186Z,993.64
2022-11-16T00:47:56.487Z,993.60
2022-11-16T00:48:54.146Z,993.65
2022-11-16T00:49:53.146Z,993.60
2022-11-16T00:50:53.155Z,993.54
2022-11-16T00:51:53.215Z,993.58
2022-11-16T00:52:53.111Z,993.60
2022-11-16T00:53:53.107Z,993.60
2022-11-16T00:54:53.081Z,993.56
2022-11-16T00:55:53.088Z,993.57
2022-11-16T00:56:53.060Z,993.50
2022-11-16T00:57:53.066Z,993.52
2022-11-16T00:58:53.037Z,993.47
2022-11-16T00:59:53.030Z,993.49
2022-11-16T01:00:53.112Z,993.48
2022-11-16T01:01:53.089Z,993.46
2022-11-16T01:02:53.005Z,993.37
2022-11-16T01:03:52.986Z,993.40
2022-11-16T01:04:52.970Z,993.37
2022-11-16T01:05:52.968Z,993.42
2022-11-16T01:06:53.014Z,993.38
2022-11-16T01:07:53.053Z,993.33
2022-11-16T01:08:52.933Z,993.32
2022-11-16T01:09:52.920Z,993.39
2022-11-16T01:10:52.904Z,993.32
2022-11-16T01:11:52.895Z,993.35
2022-11-16T01:12:52.885Z,993.36
2022-11-16T01:13:52.886Z,993.34
2022-11-16T01:14:52.864Z,993.32
2022-11-16T01:15:52.862Z,993.33
2022-11-16T01:16:52.835Z,993.34
2022-11-16T01:17:52.841Z,993.34
2022-11-16T01:18:52.825Z,993.34
2022-11-16T01:19:52.812Z,993.37
2022-11-16T01:20:52.795Z,993.35
2022-11-16T01:21:52.803Z,993.30
2022-11-16T01:22:52.792Z,993.36
2022-11-16T01:23:52.781Z,993.31
2022-11-16T01:24:52.749Z,993.31
2022-11-16T01:25:52.741Z,993.26
2022-11-16T01:26:52.731Z,993.26
2022-11-16T01:27:52.729Z,993.30
2022-11-16T01:28:52.718Z,993.27
2022-11-16T01:29:52.699Z,993.26
2022-11-16T01:30:52.690Z,993.26
2022-11-16T01:31:52.674Z,993.23
2022-11-16T01:32:52.668Z,993.18
2022-11-16T01:33:52.667Z,993.15
2022-11-16T01:34:52.636Z,993.20
2022-11-16T01:35:52.626Z,993.20
2022-11-16T01:36:52.616Z,993.23
2022-11-16T01:37:52.610Z,993.25
2022-11-16T01:38:52.644Z,993.23
2022-11-16T01:39:52.595Z,993.21
2022-11-16T01:40:52.573Z,993.19
2022-11-16T01:41:52.559Z,993.10
2022-11-16T01:42:52.548Z,993.14
2022-11-16T01:43:52.541Z,993.13
2022-11-16T01:44:52.540Z,993.09
2022-11-16T01:45:52.549Z,993.08
2022-11-16T01:46:52.506Z,993.13
2022-11-16T01:47:52.555Z,993.17
2022-11-16T01:48:52.502Z,993.12
2022-11-16T01:49:52.483Z,993.03
2022-11-16T01:50:52.463Z,993.09
2022-11-16T01:51:52.462Z,993.04
2022-11-16T01:52:52.459Z,993.05
2022-11-16T01:53:52.437Z,993.05
2022-11-16T01:54:52.465Z,992.96
2022-11-16T01:55:52.442Z,993.03
2022-11-16T01:56:52.393Z,993.00
2022-11-16T01:57:52.384Z,992.98
2022-11-16T01:58:52.368Z,992.96
2022-11-16T01:59:52.361Z,992.91
2022-11-16T02:00:52.437Z,992.89
2022-11-16T02:01:52.363Z,992.90
2022-11-16T02:02:52.334Z,992.84
2022-11-16T02:03:52.326Z,992.89
2022-11-16T02:04:52.306Z,992.88
2022-11-16T02:05:52.316Z,992.92
2022-11-16T02:06:52.335Z,992.87
2022-11-16T02:07:52.274Z,992.80
2022-11-16T02:08:52.274Z,992.83
2022-11-16T02:09:52.252Z,992.82
2022-11-16T02:10:52.264Z,992.83
2022-11-16T02:11:52.239Z,992.88
2022-11-16T02:12:52.216Z,992.82
2022-11-16T02:13:52.205Z,992.80
2022-11-16T02:14:52.225Z,992.83
2022-11-16T02:15:52.201Z,992.79
2022-11-16T02:16:52.170Z,992.77
2022-11-16T02:17:52.173Z,992.82
2022-11-16T02:18:52.156Z,992.81
2022-11-16T02:19:52.139Z,992.83
2022-11-16T02:20:52.144Z,992.74
2022-11-16T02:21:52.112Z,992.77
2022-11-16T02:22:52.121Z,992.77
2022-11-16T02:23:52.113Z,992.78
2022-11-16T02:24:52.096Z,992.72
2022-11-16T02:25:52.068Z,992.80
2022-11-16T02:26:52.081Z,992.74
2022-11-16T02:27:52.061Z,992.69
2022-11-16T02:28:52.065Z,992.70
2022-11-16T02:29:52.026Z,992.64
2022-11-16T02:30:52.037Z,992.72
2022-11-16T02:31:52.005Z,992.67
2022-11-16T02:32:52.003Z,992.68
2022-11-16T02:33:51.984Z,992.75
2022-11-16T02:34:51.982Z,992.61
2022-11-16T02:35:51.980Z,992.65
2022-11-16T02:36:51.948Z,992.66
2022-11-16T02:37:51.940Z,992.66
2022-11-16T02:38:51.928Z,992.69
2022-11-16T02:39:51.937Z,992.66
2022-11-16T02:40:51.909Z,992.65
2022-11-16T02:41:51.896Z,992.66
2022-11-16T02:42:51.904Z,992.65
2022-11-16T02:43:51.884Z,992.61
2022-11-16T02:44:51.862Z,992.63
2022-11-16T02:45:51.858Z,992.57
2022-11-16T02:46:51.845Z,992.54
2022-11-16T02:47:51.826Z,992.60
2022-11-16T02:48:51.814Z,992.58
2022-11-16T02:49:51.811Z,992.53
2022-11-16T02:50:51.817Z,992.53
2022-11-16T02:51:51.795Z,992.51
2022-11-16T02:52:51.777Z,992.65
2022-11-16T02:53:51.758Z,992.58
2022-11-16T02:54:51.749Z,992.58
2022-11-16T02:55:51.744Z,992.60
2022-11-16T02:56:51.745Z,992.46
2022-11-16T02:57:51.716Z,992.48
2022-11-16T02:58:51.738Z,992.51
2022-11-16T02:59:51.698Z,992.47
2022-11-16T03:00:51.824Z,992.49
2022-11-16T03:01:51.667Z,992.52
2022-11-16T03:02:58.780Z,992.53
2022-11-16T03:03:51.643Z,992.54
2022-11-16T03:04:51.637Z,992.55
2022-11-16T03:05:51.622Z,992.52
2022-11-16T03:06:51.691Z,992.57
2022-11-16T03:07:51.615Z,992.55
2022-11-16T03:08:51.607Z,992.55
2022-11-16T03:09:51.606Z,992.58
2022-11-16T03:10:51.577Z,992.50
2022-11-16T03:11:51.560Z,992.57
2022-11-16T03:12:51.547Z,992.58
2022-11-16T03:13:51.533Z,992.55
2022-11-16T03:14:51.553Z,992.50
2022-11-16T03:15:51.520Z,992.49
2022-11-16T03:16:51.501Z,992.52
2022-11-16T03:17:51.488Z,992.55
2022-11-16T03:18:51.476Z,992.50
2022-11-16T03:19:51.463Z,992.54
2022-11-16T03:20:51.491Z,992.48
2022-11-16T03:21:51.450Z,992.47
2022-11-16T03:22:51.436Z,992.48
2022-11-16T03:23:51.422Z,992.41
2022-11-16T03:24:51.413Z,992.46
2022-11-16T03:25:51.420Z,992.44
2022-11-16T03:26:51.403Z,992.41
2022-11-16T03:27:51.376Z,992.45
2022-11-16T03:28:51.368Z,992.50
2022-11-16T03:29:51.353Z,992.49
2022-11-16T03:30:51.371Z,992.47
2022-11-16T03:31:51.343Z,992.41
2022-11-16T03:32:51.338Z,992.51
2022-11-16T03:33:51.313Z,992.51
2022-11-16T03:34:51.305Z,992.49
2022-11-16T03:35:51.291Z,992.47
2022-11-16T03:36:51.291Z,992.51
2022-11-16T03:37:51.281Z,992.54
2022-11-16T03:38:51.268Z,992.50
2022-11-16T03:39:51.244Z,992.46
2022-11-16T03:40:51.239Z,992.48
2022-11-16T03:41:51.222Z,992.51
2022-11-16T03:42:51.222Z,992.51
2022-11-16T03:43:51.216Z,992.44
2022-11-16T03:44:51.199Z,992.43
2022-11-16T03:45:51.181Z,992.48
2022-11-16T03:46:51.213Z,992.34
2022-11-16T03:47:51.157Z,992.43
2022-11-16T03:48:51.699Z,992.38
2022-11-16T03:49:51.136Z,992.41
2022-11-16T03:50:51.133Z,992.37
2022-11-16T03:51:51.115Z,992.37
2022-11-16T03:52:51.113Z,992.37
2022-11-16T03:53:51.087Z,992.36
2022-11-16T03:54:51.085Z,992.32
2022-11-16T03:55:51.069Z,992.33
2022-11-16T03:56:51.066Z,992.32
2022-11-16T03:57:51.051Z,992.26
2022-11-16T03:58:51.038Z,992.25
2022-11-16T03:59:51.037Z,992.29
2022-11-16T04:00:51.104Z,992.21
2022-11-16T04:01:51.069Z,992.21
2022-11-16T04:02:51.013Z,992.24
2022-11-16T04:03:50.979Z,992.18
2022-11-16T04:04:50.997Z,992.20
2022-11-16T04:05:50.956Z,992.28
2022-11-16T04:06:50.986Z,992.29
2022-11-16T04:07:50.964Z,992.24
2022-11-16T04:08:50.932Z,992.27
2022-11-16T04:09:50.920Z,992.25
2022-11-16T04:10:50.904Z,992.22
2022-11-16T04:11:50.914Z,992.21
2022-11-16T04:12:50.894Z,992.24
2022-11-16T04:13:50.867Z,992.22
2022-11-16T04:14:50.859Z,992.20
2022-11-16T04:15:50.844Z,992.18
2022-11-16T04:16:50.838Z,992.17
2022-11-16T04:17:50.827Z,992.18
2022-11-16T04:18:50.844Z,992.19
2022-11-16T04:19:54.028Z,992.17
2022-11-16T04:20:51.802Z,992.20
2022-11-16T04:21:50.778Z,992.18
2022-11-16T04:22:50.769Z,992.19
2022-11-16T04:23:50.767Z,992.20
2022-11-16T04:24:50.746Z,992.21
2022-11-16T04:25:50.733Z,992.20
2022-11-16T04:26:50.735Z,992.22
2022-11-16T04:27:50.714Z,992.20
2022-11-16T04:28:50.703Z,992.24
2022-11-16T04:29:50.715Z,992.22
2022-11-16T04:30:50.683Z,992.22
2022-11-16T04:31:50.676Z,992.21
2022-11-16T04:32:50.661Z,992.21
2022-11-16T04:33:50.662Z,992.20
2022-11-16T04:34:50.660Z,992.31
2022-11-16T04:35:50.622Z,992.22
2022-11-16T04:36:50.624Z,992.20
2022-11-16T04:37:50.616Z,992.26
2022-11-16T04:38:50.629Z,992.27
2022-11-16T04:39:50.587Z,992.28
2022-11-16T04:40:50.570Z,992.23
2022-11-16T04:41:50.558Z,992.28
2022-11-16T04:42:50.548Z,992.28
2022-11-16T04:43:50.552Z,992.24
2022-11-16T04:44:50.538Z,992.28
2022-11-16T04:45:50.514Z,992.29
2022-11-16T04:46:50.506Z,992.33
2022-11-16T04:47:50.491Z,992.28
2022-11-16T04:48:50.488Z,992.26
2022-11-16T04:49:50.483Z,992.36
2022-11-16T04:50:50.484Z,992.30
2022-11-16T04:51:50.446Z,992.34
2022-11-16T04:52:50.440Z,992.27
2022-11-16T04:53:50.430Z,992.31
2022-11-16T04:54:50.427Z,992.28
2022-11-16T04:55:50.411Z,992.27
2022-11-16T04:56:50.391Z,992.26
2022-11-16T04:57:50.380Z,992.21
2022-11-16T04:58:50.373Z,992.31
2022-11-16T04:59:50.368Z,992.24
2022-11-16T05:00:50.351Z,992.24
2022-11-16T05:01:50.373Z,992.31
2022-11-16T05:02:50.337Z,992.27
2022-11-16T05:03:50.309Z,992.26
2022-11-16T05:04:50.315Z,992.30
2022-11-16T05:05:50.315Z,992.23
2022-11-16T05:06:50.389Z,992.32
2022-11-16T05:07:50.271Z,992.28
2022-11-16T05:08:50.264Z,992.27
2022-11-16T05:09:50.261Z,992.27
2022-11-16T05:10:50.245Z,992.22
2022-11-16T05:11:50.251Z,992.24
2022-11-16T05:12:50.215Z,992.16
2022-11-16T05:13:50.201Z,992.18
2022-11-16T05:14:50.197Z,992.19
2022-11-16T05:15:50.199Z,992.18
2022-11-16T05:16:50.177Z,992.20
2022-11-16T05:17:50.189Z,992.23
2022-11-16T05:18:50.150Z,992.21
2022-11-16T05:19:50.141Z,992.23
2022-11-16T05:20:50.138Z,992.25
2022-11-16T05:21:50.115Z,992.21
2022-11-16T05:22:50.131Z,992.30
2022-11-16T05:23:50.091Z,992.28
2022-11-16T05:24:50.137Z,992.26
2022-11-16T05:25:50.069Z,992.29
2022-11-16T05:26:50.059Z,992.26
2022-11-16T05:27:50.048Z,992.30
2022-11-16T05:28:50.043Z,992.29
2022-11-16T05:29:50.025Z,992.32
2022-11-16T05:30:50.040Z,992.29
2022-11-16T05:31:50.006Z,992.29
2022-11-16T05:32:49.996Z,992.33
2022-11-16T05:33:49.983Z,992.21
2022-11-16T05:34:49.971Z,992.27
2022-11-16T05:35:49.980Z,992.32
2022-11-16T05:36:49.950Z,992.31
2022-11-16T05:37:49.937Z,992.36
2022-11-16T05:38:53.898Z,992.38
2022-11-16T05:39:50.915Z,992.39
2022-11-16T05:40:49.910Z,992.37
2022-11-16T05:41:49.898Z,992.35
2022-11-16T05:42:49.889Z,992.28
2022-11-16T05:43:49.868Z,992.32
2022-11-16T05:44:49.860Z,992.31
2022-11-16T05:45:49.845Z,992.34
2022-11-16T05:46:49.846Z,992.31
2022-11-16T05:47:49.845Z,992.30
2022-11-16T05:48:49.830Z,992.32
2022-11-16T05:49:49.803Z,992.30
2022-11-16T05:50:49.793Z,992.31
2022-11-16T05:51:49.780Z,992.35
2022-11-16T05:52:49.805Z,992.37
2022-11-16T05:53:49.759Z,992.32
2022-11-16T05:54:49.769Z,992.37
2022-11-16T05:55:49.784Z,992.43
2022-11-16T05:56:49.741Z,992.42
2022-11-16T05:57:49.724Z,992.38
2022-11-16T05:58:49.717Z,992.44
2022-11-16T05:59:49.696Z,992.45
2022-11-16T06:00:49.680Z,992.48
2022-11-16T06:01:49.667Z,992.46
2022-11-16T06:02:49.696Z,992.42
2022-11-16T06:03:49.673Z,992.50
2022-11-16T06:04:49.659Z,992.46
2022-11-16T06:05:49.622Z,992.47
2022-11-16T06:06:49.622Z,992.53
2022-11-16T06:07:49.615Z,992.51
2022-11-16T06:08:49.594Z,992.59
2022-11-16T06:09:49.578Z,992.53
2022-11-16T06:10:49.582Z,992.55
2022-11-16T06:11:49.560Z,992.56
2022-11-16T06:12:49.550Z,992.54
2022-11-16T06:13:49.543Z,992.60
2022-11-16T06:14:49.525Z,992.57
2022-11-16T06:15:49.513Z,992.60
2022-11-16T06:16:49.780Z,992.56
2022-11-16T06:17:49.497Z,992.60
2022-11-16T06:18:49.491Z,992.62
2022-11-16T06:19:49.477Z,992.64
2022-11-16T06:20:49.460Z,992.66
2022-11-16T06:21:49.446Z,992.67
2022-11-16T06:22:49.436Z,992.69
2022-11-16T06:23:49.453Z,992.72
2022-11-16T06:24:49.413Z,992.63
2022-11-16T06:25:49.400Z,992.71
2022-11-16T06:26:49.391Z,992.73
2022-11-16T06:27:49.379Z,992.71
2022-11-16T06:28:49.382Z,992.74
2022-11-16T06:29:49.374Z,992.75
2022-11-16T06:30:49.345Z,992.74
2022-11-16T06:31:49.337Z,992.82
2022-11-16T06:32:49.446Z,992.82
2022-11-16T06:33:49.317Z,992.84
2022-11-16T06:34:49.302Z,992.79
2022-11-16T06:35:49.300Z,992.83
2022-11-16T06:36:49.294Z,992.91
2022-11-16T06:37:49.277Z,992.84
2022-11-16T06:38:49.256Z,992.82
2022-11-16T06:39:49.271Z,992.89
2022-11-16T06:40:49.237Z,992.89
2022-11-16T06:41:49.227Z,992.93
2022-11-16T06:42:49.209Z,992.97
2022-11-16T06:43:49.209Z,992.92
2022-11-16T06:44:49.188Z,992.96
2022-11-16T06:45:49.191Z,992.96
2022-11-16T06:46:49.170Z,992.99
2022-11-16T06:47:49.159Z,993.00
2022-11-16T06:48:50.049Z,993.04
2022-11-16T06:49:49.136Z,993.06
2022-11-16T06:50:49.141Z,993.05
2022-11-16T06:51:49.111Z,993.10
2022-11-16T06:52:49.098Z,993.11
2022-11-16T06:53:49.099Z,993.17
2022-11-16T06:54:49.075Z,993.26
2022-11-16T06:55:49.077Z,993.25
2022-11-16T06:56:49.060Z,993.20
2022-11-16T06:57:49.055Z,993.28
2022-11-16T06:58:52.988Z,993.24
2022-11-16T06:59:49.024Z,993.25
2022-11-16T07:00:49.039Z,993.23
2022-11-16T07:01:49.053Z,993.18
2022-11-16T07:02:48.990Z,993.24
2022-11-16T07:03:48.980Z,993.30
2022-11-16T07:04:49.341Z,993.23
2022-11-16T07:05:48.975Z,993.29
2022-11-16T07:06:49.064Z,993.27
2022-11-16T07:07:48.936Z,993.31
2022-11-16T07:08:48.925Z,993.34
2022-11-16T07:09:48.924Z,993.29
2022-11-16T07:10:48.916Z,993.29
2022-11-16T07:11:48.908Z,993.27
2022-11-16T07:12:48.877Z,993.21
2022-11-16T07:13:48.867Z,993.26
2022-11-16T07:14:48.853Z,993.29
2022-11-16T07:15:48.860Z,993.29
2022-11-16T07:16:48.831Z,993.32
2022-11-16T07:17:48.831Z,993.28
2022-11-16T07:18:48.820Z,993.24
2022-11-16T07:19:48.810Z,993.31
2022-11-16T07:20:48.808Z,993.31
2022-11-16T07:21:48.787Z,993.26
2022-11-16T07:22:48.779Z,993.34
2022-11-16T07:23:48.761Z,993.32
2022-11-16T07:24:48.776Z,993.30
2022-11-16T07:25:48.735Z,993.32
2022-11-16T07:26:48.721Z,993.30
2022-11-16T07:27:48.717Z,993.39
2022-11-16T07:28:48.868Z,993.33
2022-11-16T07:29:48.701Z,993.35
2022-11-16T07:30:48.700Z,993.39
2022-11-16T07:31:48.669Z,993.36
2022-11-16T07:32:48.653Z,993.47
2022-11-16T07:33:48.651Z,993.43
2022-11-16T07:34:48.634Z,993.40
2022-11-16T07:35:48.640Z,993.40
2022-11-16T07:36:48.632Z,993.48
2022-11-16T07:37:48.602Z,993.45
2022-11-16T07:38:48.605Z,993.53
2022-11-16T07:39:48.594Z,993.45
2022-11-16T07:40:48.570Z,993.49
2022-11-16T07:41:48.558Z,993.52
2022-11-16T07:42:48.550Z,993.53
2022-11-16T07:43:52.783Z,993.57
2022-11-16T07:44:48.520Z,993.54
2022-11-16T07:45:48.523Z,993.59
2022-11-16T07:46:48.930Z,993.61
2022-11-16T07:47:48.493Z,993.63
2022-11-16T07:48:48.487Z,993.65
2022-11-16T07:49:48.469Z,993.76
2022-11-16T07:50:48.471Z,993.70
2022-11-16T07:51:48.446Z,993.75
2022-11-16T07:52:48.647Z,993.72
2022-11-16T07:53:48.426Z,993.75
2022-11-16T07:54:48.411Z,993.79
2022-11-16T07:55:48.402Z,993.80
2022-11-16T07:56:48.476Z,993.88
2022-11-16T07:57:53.093Z,993.85
2022-11-16T07:58:49.365Z,993.87
2022-11-16T07:59:48.356Z,993.91
2022-11-16T08:00:48.342Z,993.88
2022-11-16T08:01:48.411Z,993.87
2022-11-16T08:02:48.350Z,993.93
2022-11-16T08:03:48.330Z,993.93
2022-11-16T08:04:48.306Z,993.98
2022-11-16T08:05:48.289Z,993.98
2022-11-16T08:06:48.349Z,993.97
2022-11-16T08:07:48.283Z,993.97
2022-11-16T08:08:50.412Z,994.03
2022-11-16T08:09:49.308Z,993.97
2022-11-16T08:10:48.248Z,994.03
2022-11-16T08:11:48.237Z,993.97
2022-11-16T08:12:48.217Z,994.04
2022-11-16T08:13:48.216Z,994.02
2022-11-16T08:14:48.188Z,994.06
2022-11-16T08:15:48.190Z,994.06
2022-11-16T08:16:48.163Z,994.06
2022-11-16T08:17:48.166Z,994.05
2022-11-16T08:18:48.164Z,994.14
2022-11-16T08:19:48.146Z,994.19
2022-11-16T08:20:48.121Z,994.17
2022-11-16T08:21:48.117Z,994.14
2022-11-16T08:22:48.099Z,994.16
2022-11-16T08:23:48.091Z,994.15
2022-11-16T08:24:48.117Z,994.22
2022-11-16T08:25:48.085Z,994.22
2022-11-16T08:26:48.081Z,994.25
2022-11-16T08:27:48.045Z,994.25
2022-11-16T08:28:48.040Z,994.19
2022-11-16T08:29:48.024Z,994.20
2022-11-16T08:30:53.492Z,994.20
2022-11-16T08:31:49.009Z,994.25
2022-11-16T08:32:47.986Z,994.27
2022-11-16T08:33:47.997Z,994.21
2022-11-16T08:34:47.965Z,994.31
2022-11-16T08:35:47.959Z,994.21
2022-11-16T08:36:47.960Z,994.29
2022-11-16T08:37:47.935Z,994.28
2022-11-16T08:38:47.923Z,994.29
2022-11-16T08:39:47.920Z,994.38
2022-11-16T08:40:47.920Z,994.28
2022-11-16T08:41:47.907Z,994.35
2022-11-16T08:42:47.887Z,994.34
2022-11-16T08:43:47.887Z,994.34
2022-11-16T08:44:47.853Z,994.36
2022-11-16T08:45:47.844Z,994.37
2022-11-16T08:46:47.836Z,994.34
2022-11-16T08:47:47.834Z,994.41
2022-11-16T08:48:47.905Z,994.34
2022-11-16T08:49:49.733Z,994.36
2022-11-16T08:51:15.274Z,994.35
2022-11-16T08:51:48.781Z,994.34
2022-11-16T08:52:47.775Z,994.32
2022-11-16T08:53:47.763Z,994.32
2022-11-16T08:54:47.741Z,994.37
2022-11-16T08:55:47.735Z,994.34
2022-11-16T08:56:47.886Z,994.35
2022-11-16T08:57:47.735Z,994.45
2022-11-16T08:58:49.420Z,994.39
2022-11-16T08:59:47.689Z,994.39
2022-11-16T09:00:47.723Z,994.43
2022-11-16T09:01:47.742Z,994.44
2022-11-16T09:02:47.658Z,994.44
2022-11-16T09:03:54.762Z,994.40
2022-11-16T09:04:47.636Z,994.40
2022-11-16T09:05:47.631Z,994.51
2022-11-16T09:06:47.713Z,994.50
2022-11-16T09:07:47.603Z,994.45
2022-11-16T09:08:47.603Z,994.49
2022-11-16T09:09:47.579Z,994.50
2022-11-16T09:10:47.580Z,994.49
2022-11-16T09:11:47.568Z,994.50
2022-11-16T09:12:47.655Z,994.53
2022-11-16T09:13:47.533Z,994.52
2022-11-16T09:14:47.520Z,994.50
2022-11-16T09:15:47.525Z,994.52
2022-11-16T09:16:47.511Z,994.56
2022-11-16T09:17:47.487Z,994.51
2022-11-16T09:18:47.472Z,994.49
2022-11-16T09:19:47.468Z,994.51
2022-11-16T09:20:47.464Z,994.57
2022-11-16T09:21:47.448Z,994.49
2022-11-16T09:22:47.440Z,994.49
2022-11-16T09:23:47.424Z,994.59
2022-11-16T09:24:47.422Z,994.57
2022-11-16T09:25:47.403Z,994.64
2022-11-16T09:26:47.395Z,994.62
2022-11-16T09:27:47.386Z,994.64
2022-11-16T09:28:47.381Z,994.69
2022-11-16T09:29:47.356Z,994.71
2022-11-16T09:30:47.352Z,994.72
2022-11-16T09:31:47.336Z,994.76
2022-11-16T09:32:47.328Z,994.71
2022-11-16T09:33:47.338Z,994.74
2022-11-16T09:34:47.314Z,994.75
2022-11-16T09:35:47.292Z,994.78
2022-11-16T09:36:47.289Z,994.73
2022-11-16T09:37:47.269Z,994.80
2022-11-16T09:39:17.854Z,994.79
2022-11-16T09:39:48.261Z,994.85
2022-11-16T09:40:47.240Z,994.87
2022-11-16T09:41:47.227Z,994.87
2022-11-16T09:42:47.210Z,994.89
2022-11-16T09:43:47.389Z,994.87
2022-11-16T09:44:47.317Z,994.92
2022-11-16T09:45:47.178Z,994.93
2022-11-16T09:46:47.184Z,994.97
2022-11-16T09:47:47.158Z,994.93
2022-11-16T09:48:47.161Z,994.98
2022-11-16T09:49:47.133Z,994.92
2022-11-16T09:50:47.116Z,994.97
2022-11-16T09:51:47.113Z,995.01
2022-11-16T09:52:47.094Z,995.04
2022-11-16T09:53:47.091Z,995.02
2022-11-16T09:54:47.092Z,995.11
2022-11-16T09:55:47.079Z,995.05
2022-11-16T09:56:47.052Z,995.01
2022-11-16T09:57:47.091Z,995.00
2022-11-16T09:58:47.038Z,995.07
2022-11-16T09:59:47.032Z,995.02
2022-11-16T10:00:47.104Z,995.06
2022-11-16T10:01:47.008Z,995.09
2022-11-16T10:02:46.992Z,995.02
2022-11-16T10:03:46.979Z,995.10
2022-11-16T10:04:46.964Z,995.05
2022-11-16T10:05:46.962Z,995.05
2022-11-16T10:06:46.943Z,995.08
2022-11-16T10:07:46.934Z,995.05
2022-11-16T10:08:46.919Z,995.07
2022-11-16T10:09:46.918Z,995.08
2022-11-16T10:10:46.925Z,995.05
2022-11-16T10:11:46.885Z,995.09
2022-11-16T10:12:46.890Z,995.03
2022-11-16T10:13:46.864Z,995.03
2022-11-16T10:14:46.859Z,995.03
2022-11-16T10:15:46.861Z,995.06
2022-11-16T10:16:46.863Z,995.10
2022-11-16T10:17:46.817Z,995.11
2022-11-16T10:18:46.800Z,995.15
2022-11-16T10:19:46.805Z,995.15
2022-11-16T10:20:46.783Z,995.12
2022-11-16T10:21:46.786Z,995.16
2022-11-16T10:22:46.760Z,995.21
2022-11-16T10:23:46.758Z,995.13
2022-11-16T10:24:46.740Z,995.10
2022-11-16T10:25:46.748Z,995.11
2022-11-16T10:26:46.733Z,995.18
2022-11-16T10:27:46.710Z,995.12
2022-11-16T10:28:46.695Z,995.09
2022-11-16T10:29:46.712Z,995.04
2022-11-16T10:30:46.686Z,995.06
2022-11-16T10:31:46.676Z,995.09
2022-11-16T10:32:46.763Z,995.11
2022-11-16T10:33:46.668Z,995.10
2022-11-16T10:34:46.630Z,995.02
2022-11-16T10:35:46.618Z,995.04
2022-11-16T10:36:46.609Z,994.98
2022-11-16T10:37:46.600Z,994.98
2022-11-16T10:38:46.599Z,994.97
2022-11-16T10:39:46.576Z,994.91
2022-11-16T10:40:46.569Z,994.97
2022-11-16T10:41:46.562Z,994.93
2022-11-16T10:42:46.544Z,994.98
2022-11-16T10:43:46.542Z,994.99
2022-11-16T10:44:46.538Z,995.00
2022-11-16T10:45:46.504Z,994.99
2022-11-16T10:46:46.501Z,994.97
2022-11-16T10:47:46.491Z,994.99
2022-11-16T10:48:46.494Z,994.99
2022-11-16T10:49:46.459Z,994.97
2022-11-16T10:50:46.465Z,994.92
2022-11-16T10:51:46.438Z,994.91
2022-11-16T10:52:46.430Z,994.93
2022-11-16T10:53:46.416Z,994.91
2022-11-16T10:54:46.416Z,994.86
2022-11-16T10:55:46.393Z,994.86
2022-11-16T10:56:46.397Z,994.88
2022-11-16T10:57:46.371Z,994.89
2022-11-16T10:58:46.370Z,994.81
2022-11-16T10:59:46.365Z,994.82
2022-11-16T11:00:46.425Z,994.84
2022-11-16T11:01:46.329Z,994.91
2022-11-16T11:02:46.386Z,994.81
2022-11-16T11:03:46.301Z,994.81
2022-11-16T11:04:46.316Z,994.84
2022-11-16T11:05:46.278Z,994.80
2022-11-16T11:06:46.274Z,994.89
2022-11-16T11:07:46.259Z,994.83
2022-11-16T11:08:46.270Z,994.86
2022-11-16T11:09:46.241Z,994.88
2022-11-16T11:10:46.227Z,994.89
2022-11-16T11:11:46.235Z,994.82
2022-11-16T11:12:46.208Z,994.89
2022-11-16T11:13:46.198Z,994.88
2022-11-16T11:14:46.183Z,994.85
2022-11-16T11:15:46.185Z,994.79
2022-11-16T11:16:46.163Z,994.87
2022-11-16T11:17:46.161Z,994.87
2022-11-16T11:18:46.168Z,994.85
2022-11-16T11:19:46.146Z,994.87
2022-11-16T11:20:46.243Z,994.87
2022-11-16T11:21:46.121Z,994.87
2022-11-16T11:22:46.096Z,994.83
2022-11-16T11:23:46.093Z,994.89
2022-11-16T11:24:46.095Z,994.89
2022-11-16T11:25:46.061Z,994.86
2022-11-16T11:26:46.047Z,994.93
2022-11-16T11:27:46.034Z,994.87
2022-11-16T11:28:46.057Z,994.89
2022-11-16T11:29:46.014Z,994.87
2022-11-16T11:30:46.004Z,994.80
2022-11-16T11:31:45.994Z,994.80
2022-11-16T11:32:45.978Z,994.81
2022-11-16T11:33:45.994Z,994.81
2022-11-16T11:34:45.962Z,994.75
2022-11-16T11:35:45.950Z,994.73
2022-11-16T11:36:45.954Z,994.74
2022-11-16T11:37:45.923Z,994.75
2022-11-16T11:38:45.918Z,994.77
2022-11-16T11:39:45.998Z,994.69
2022-11-16T11:40:45.888Z,994.70
2022-11-16T11:41:45.873Z,994.67
2022-11-16T11:42:45.871Z,994.67
2022-11-16T11:43:45.860Z,994.71
2022-11-16T11:44:45.844Z,994.59
2022-11-16T11:45:45.843Z,994.64
2022-11-16T11:47:35.099Z,994.60
2022-11-16T11:48:02.183Z,994.63
2022-11-16T11:48:46.816Z,994.66
2022-11-16T11:49:45.790Z,994.62
2022-11-16T11:50:45.784Z,994.63
2022-11-16T11:51:45.767Z,994.69
2022-11-16T11:52:45.870Z,994.69
2022-11-16T11:53:45.752Z,994.62
2022-11-16T11:54:46.229Z,994.66
2022-11-16T11:55:45.777Z,994.66
2022-11-16T11:56:45.722Z,994.66
2022-11-16T11:57:45.713Z,994.53
2022-11-16T11:58:45.697Z,994.55
2022-11-16T11:59:45.703Z,994.59
2022-11-16T12:00:45.666Z,994.56
2022-11-16T12:01:45.650Z,994.57
2022-11-16T12:02:45.657Z,994.54
2022-11-16T12:03:45.644Z,994.55
2022-11-16T12:04:45.656Z,994.50
2022-11-16T12:05:45.675Z,994.50
2022-11-16T12:06:45.613Z,994.42
2022-11-16T12:07:45.593Z,994.45
2022-11-16T12:08:45.600Z,994.44
2022-11-16T12:09:45.570Z,994.39
2022-11-16T12:10:45.559Z,994.42
2022-11-16T12:11:45.558Z,994.49
2022-11-16T12:12:45.535Z,994.46
2022-11-16T12:13:45.521Z,994.51
2022-11-16T12:14:45.520Z,994.52
2022-11-16T12:15:45.503Z,994.50
2022-11-16T12:16:45.498Z,994.51
2022-11-16T12:17:45.482Z,994.51
2022-11-16T12:18:45.474Z,994.55
2022-11-16T12:19:45.454Z,994.48
2022-11-16T12:20:45.453Z,994.45
2022-11-16T12:21:45.431Z,994.44
2022-11-16T12:22:45.445Z,994.45
2022-11-16T12:23:45.414Z,994.45
2022-11-16T12:24:45.519Z,994.46
2022-11-16T12:25:45.405Z,994.41
2022-11-16T12:26:45.377Z,994.45
2022-11-16T12:27:45.366Z,994.41
2022-11-16T12:28:50.858Z,994.49